sensor_id;sensor_type;location;lat;lon;timestamp;P1;durP1;ratioP1;P2;durP2;ratioP2
59014;SDS011;44799;53.382;14.666;2023-02-01T07:37:54;2.17;;;1.20;;
59014;SDS011;44799;53.382;14.666;2023-02-01T07:40:22;1.85;;;0.70;;
59014;SDS011;44799;53.382;14.666;2023-02-01T07:42:53;3.35;;;1.00;;
59014;SDS011;44799;53.382;14.666;2023-02-01T07:45:20;2.05;;;0.85;;
59014;SDS011;44799;53.382;14.666;2023-02-01T07:47:47;1.55;;;0.63;;
59014;SDS011;44799;53.382;14.666;2023-02-01T07:50:13;1.15;;;0.60;;
59014;SDS011;44799;53.382;14.666;2023-02-01T07:52:39;1.92;;;0.93;;
59014;SDS011;44799;53.382;14.666;2023-02-01T07:55:06;1.88;;;0.88;;
59014;SDS011;44799;53.382;14.666;2023-02-01T07:57:32;2.90;;;0.82;;
59014;SDS011;44799;53.382;14.666;2023-02-01T07:59:58;3.72;;;1.10;;
59014;SDS011;44799;53.382;14.666;2023-02-01T08:02:42;4.88;;;1.13;;
59014;SDS011;44799;53.382;14.666;2023-02-01T08:05:08;1.80;;;0.98;;
59014;SDS011;44799;53.382;14.666;2023-02-01T08:07:34;2.75;;;1.10;;
59014;SDS011;44799;53.382;14.666;2023-02-01T08:09:59;2.47;;;1.25;;
59014;SDS011;44799;53.382;14.666;2023-02-01T08:12:26;2.88;;;1.45;;
59014;SDS011;44799;53.382;14.666;2023-02-01T08:14:52;4.15;;;1.33;;
59014;SDS011;44799;53.382;14.666;2023-02-01T08:17:19;4.65;;;1.55;;
59014;SDS011;44799;53.382;14.666;2023-02-01T08:19:45;2.42;;;1.48;;
59014;SDS011;44799;53.382;14.666;2023-02-01T08:22:11;3.22;;;0.90;;
59014;SDS011;44799;53.382;14.666;2023-02-01T08:24:36;1.90;;;1.27;;
59014;SDS011;44799;53.382;14.666;2023-02-01T08:27:05;4.85;;;1.10;;
59014;SDS011;44799;53.382;14.666;2023-02-01T08:29:31;3.80;;;1.05;;
59014;SDS011;44799;53.382;14.666;2023-02-01T08:31:57;3.20;;;0.85;;
59014;SDS011;44799;53.382;14.666;2023-02-01T08:34:23;2.20;;;0.93;;
59014;SDS011;44799;53.382;14.666;2023-02-01T08:36:49;2.58;;;1.10;;
59014;SDS011;44799;53.382;14.666;2023-02-01T08:39:17;2.00;;;0.95;;
59014;SDS011;44799;53.382;14.666;2023-02-01T08:41:43;3.40;;;1.05;;
59014;SDS011;44799;53.382;14.666;2023-02-01T08:44:28;1.25;;;0.68;;
59014;SDS011;44799;53.382;14.666;2023-02-01T08:46:54;5.78;;;1.30;;
59014;SDS011;44799;53.382;14.666;2023-02-01T08:49:20;3.95;;;1.15;;
59014;SDS011;44799;53.382;14.666;2023-02-01T08:51:46;3.80;;;0.90;;
59014;SDS011;44799;53.382;14.666;2023-02-01T08:54:11;3.42;;;0.80;;
59014;SDS011;44799;53.382;14.666;2023-02-01T08:56:37;2.80;;;1.15;;
59014;SDS011;44799;53.382;14.666;2023-02-01T08:59:03;2.13;;;0.70;;
59014;SDS011;44799;53.382;14.666;2023-02-01T09:01:29;2.45;;;0.98;;
59014;SDS011;44799;53.382;14.666;2023-02-01T09:03:54;2.33;;;0.90;;
59014;SDS011;44799;53.382;14.666;2023-02-01T09:06:20;3.80;;;1.02;;
59014;SDS011;44799;53.382;14.666;2023-02-01T09:08:46;1.17;;;0.82;;
59014;SDS011;44799;53.382;14.666;2023-02-01T09:11:13;1.60;;;0.70;;
59014;SDS011;44799;53.382;14.666;2023-02-01T09:13:40;2.47;;;0.88;;
59014;SDS011;44799;53.382;14.666;2023-02-01T09:16:06;2.63;;;0.90;;
59014;SDS011;44799;53.382;14.666;2023-02-01T09:18:32;1.52;;;0.77;;
59014;SDS011;44799;53.382;14.666;2023-02-01T09:20:58;2.50;;;0.63;;
59014;SDS011;44799;53.382;14.666;2023-02-01T09:23:24;2.15;;;0.75;;
59014;SDS011;44799;53.382;14.666;2023-02-01T09:25:50;1.45;;;0.80;;
59014;SDS011;44799;53.382;14.666;2023-02-01T09:28:16;1.85;;;0.77;;
59014;SDS011;44799;53.382;14.666;2023-02-01T09:30:43;2.67;;;0.63;;
59014;SDS011;44799;53.382;14.666;2023-02-01T09:33:09;2.47;;;0.98;;
59014;SDS011;44799;53.382;14.666;2023-02-01T09:35:34;1.13;;;0.80;;
59014;SDS011;44799;53.382;14.666;2023-02-01T09:38:00;1.38;;;0.70;;
59014;SDS011;44799;53.382;14.666;2023-02-01T09:40:26;0.60;;;0.50;;
59014;SDS011;44799;53.382;14.666;2023-02-01T09:43:11;0.85;;;0.50;;
59014;SDS011;44799;53.382;14.666;2023-02-01T09:48:27;2.38;;;0.80;;
59014;SDS011;44799;53.382;14.666;2023-02-01T09:50:55;1.45;;;0.50;;
59014;SDS011;44799;53.382;14.666;2023-02-01T09:58:55;1.75;;;0.60;;
59014;SDS011;44799;53.382;14.666;2023-02-01T10:01:29;1.25;;;0.45;;
59014;SDS011;44799;53.382;14.666;2023-02-01T10:04:02;2.33;;;0.60;;
59014;SDS011;44799;53.382;14.666;2023-02-01T10:06:43;0.85;;;0.52;;
59014;SDS011;44799;53.382;14.666;2023-02-01T10:14:56;1.27;;;0.50;;
59014;SDS011;44799;53.382;14.666;2023-02-01T10:27:39;1.02;;;0.50;;
59014;SDS011;44799;53.382;14.666;2023-02-01T10:30:14;1.75;;;0.73;;
59014;SDS011;44799;53.382;14.666;2023-02-01T10:32:45;1.23;;;0.50;;
59014;SDS011;44799;53.382;14.666;2023-02-01T10:35:28;1.27;;;0.47;;
59014;SDS011;44799;53.382;14.666;2023-02-01T10:38:01;1.33;;;0.60;;
59014;SDS011;44799;53.382;14.666;2023-02-01T10:40:29;1.02;;;0.50;;
59014;SDS011;44799;53.382;14.666;2023-02-01T10:43:04;0.68;;;0.68;;
59014;SDS011;44799;53.382;14.666;2023-02-01T10:45:30;0.50;;;0.40;;
59014;SDS011;44799;53.382;14.666;2023-02-01T10:47:58;1.05;;;0.40;;
59014;SDS011;44799;53.382;14.666;2023-02-01T10:55:49;1.85;;;0.60;;
59014;SDS011;44799;53.382;14.666;2023-02-01T10:58:20;1.05;;;0.47;;
59014;SDS011;44799;53.382;14.666;2023-02-01T11:03:36;0.45;;;0.45;;
59014;SDS011;44799;53.382;14.666;2023-02-01T11:08:48;1.70;;;0.43;;
59014;SDS011;44799;53.382;14.666;2023-02-01T11:11:16;3.65;;;1.20;;
59014;SDS011;44799;53.382;14.666;2023-02-01T11:13:42;1.38;;;0.60;;
59014;SDS011;44799;53.382;14.666;2023-02-01T11:16:12;1.25;;;0.50;;
59014;SDS011;44799;53.382;14.666;2023-02-01T11:18:39;1.15;;;0.63;;
59014;SDS011;44799;53.382;14.666;2023-02-01T11:21:06;0.70;;;0.40;;
59014;SDS011;44799;53.382;14.666;2023-02-01T11:23:33;0.93;;;0.55;;
59014;SDS011;44799;53.382;14.666;2023-02-01T11:26:12;2.33;;;0.57;;
59014;SDS011;44799;53.382;14.666;2023-02-01T11:29:00;0.93;;;0.40;;
59014;SDS011;44799;53.382;14.666;2023-02-01T11:31:34;2.25;;;0.93;;
59014;SDS011;44799;53.382;14.666;2023-02-01T11:36:36;1.60;;;0.63;;
59014;SDS011;44799;53.382;14.666;2023-02-01T11:44:23;1.05;;;0.88;;
59014;SDS011;44799;53.382;14.666;2023-02-01T11:46:56;1.35;;;0.55;;
59014;SDS011;44799;53.382;14.666;2023-02-01T11:49:44;4.40;;;1.38;;
59014;SDS011;44799;53.382;14.666;2023-02-01T12:09:04;3.92;;;0.90;;
59014;SDS011;44799;53.382;14.666;2023-02-01T12:11:50;2.47;;;0.88;;
59014;SDS011;44799;53.382;14.666;2023-02-01T12:17:42;5.05;;;1.20;;
59014;SDS011;44799;53.382;14.666;2023-02-01T12:20:22;1.80;;;0.60;;
59014;SDS011;44799;53.382;14.666;2023-02-01T12:28:42;1.83;;;0.63;;
59014;SDS011;44799;53.382;14.666;2023-02-01T12:40:26;1.08;;;0.80;;
59014;SDS011;44799;53.382;14.666;2023-02-01T12:42:59;1.58;;;0.90;;
59014;SDS011;44799;53.382;14.666;2023-02-01T12:45:34;1.67;;;0.85;;
59014;SDS011;44799;53.382;14.666;2023-02-01T12:51:12;1.15;;;0.60;;
59014;SDS011;44799;53.382;14.666;2023-02-01T12:56:24;2.05;;;0.77;;
59014;SDS011;44799;53.382;14.666;2023-02-01T12:59:03;0.40;;;0.40;;
59014;SDS011;44799;53.382;14.666;2023-02-01T13:06:41;0.63;;;0.52;;
59014;SDS011;44799;53.382;14.666;2023-02-01T13:09:34;0.73;;;0.73;;
59014;SDS011;44799;53.382;14.666;2023-02-01T13:12:19;0.82;;;0.47;;
59014;SDS011;44799;53.382;14.666;2023-02-01T13:15:03;1.23;;;0.80;;
59014;SDS011;44799;53.382;14.666;2023-02-01T13:17:36;0.68;;;0.38;;
59014;SDS011;44799;53.382;14.666;2023-02-01T13:25:50;1.95;;;0.70;;
59014;SDS011;44799;53.382;14.666;2023-02-01T13:28:24;1.15;;;0.50;;
59014;SDS011;44799;53.382;14.666;2023-02-01T13:31:00;2.25;;;1.08;;
59014;SDS011;44799;53.382;14.666;2023-02-01T13:36:35;1.58;;;0.68;;
59014;SDS011;44799;53.382;14.666;2023-02-01T13:39:25;1.55;;;0.68;;
59014;SDS011;44799;53.382;14.666;2023-02-01T13:45:15;2.42;;;0.80;;
59014;SDS011;44799;53.382;14.666;2023-02-01T13:47:50;2.17;;;1.05;;
59014;SDS011;44799;53.382;14.666;2023-02-01T13:50:21;1.08;;;0.80;;
59014;SDS011;44799;53.382;14.666;2023-02-01T13:52:56;0.77;;;0.70;;
59014;SDS011;44799;53.382;14.666;2023-02-01T13:55:34;1.20;;;0.60;;
59014;SDS011;44799;53.382;14.666;2023-02-01T13:58:03;2.15;;;0.77;;
59014;SDS011;44799;53.382;14.666;2023-02-01T14:00:41;1.33;;;0.63;;
59014;SDS011;44799;53.382;14.666;2023-02-01T14:03:10;2.83;;;0.60;;
59014;SDS011;44799;53.382;14.666;2023-02-01T14:13:20;0.90;;;0.60;;
59014;SDS011;44799;53.382;14.666;2023-02-01T14:26:20;0.98;;;0.75;;
59014;SDS011;44799;53.382;14.666;2023-02-01T14:31:31;1.48;;;0.80;;
59014;SDS011;44799;53.382;14.666;2023-02-01T14:34:00;0.98;;;0.68;;
59014;SDS011;44799;53.382;14.666;2023-02-01T14:36:40;1.73;;;0.68;;
59014;SDS011;44799;53.382;14.666;2023-02-01T14:39:38;1.38;;;0.80;;
59014;SDS011;44799;53.382;14.666;2023-02-01T14:42:42;1.85;;;1.00;;
59014;SDS011;44799;53.382;14.666;2023-02-01T14:47:48;0.88;;;0.80;;
59014;SDS011;44799;53.382;14.666;2023-02-01T15:01:30;1.27;;;0.75;;
59014;SDS011;44799;53.382;14.666;2023-02-01T15:06:40;1.20;;;0.82;;
59014;SDS011;44799;53.382;14.666;2023-02-01T15:14:35;2.10;;;0.65;;
59014;SDS011;44799;53.382;14.666;2023-02-01T15:19:41;1.42;;;0.80;;
59014;SDS011;44799;53.382;14.666;2023-02-01T15:22:25;1.27;;;0.60;;
59014;SDS011;44799;53.382;14.666;2023-02-01T15:24:55;1.33;;;0.77;;
59014;SDS011;44799;53.382;14.666;2023-02-01T15:27:23;1.33;;;0.80;;
59014;SDS011;44799;53.382;14.666;2023-02-01T15:29:49;2.83;;;1.08;;
59014;SDS011;44799;53.382;14.666;2023-02-01T15:32:33;1.25;;;0.90;;
59014;SDS011;44799;53.382;14.666;2023-02-01T15:35:03;1.67;;;0.80;;
59014;SDS011;44799;53.382;14.666;2023-02-01T15:37:29;1.33;;;0.80;;
59014;SDS011;44799;53.382;14.666;2023-02-01T15:42:53;0.65;;;0.60;;
59014;SDS011;44799;53.382;14.666;2023-02-01T15:45:21;0.60;;;0.60;;
59014;SDS011;44799;53.382;14.666;2023-02-01T15:47:51;1.17;;;0.80;;
59014;SDS011;44799;53.382;14.666;2023-02-01T15:50:19;0.82;;;0.70;;
59014;SDS011;44799;53.382;14.666;2023-02-01T15:52:46;2.35;;;0.80;;
59014;SDS011;44799;53.382;14.666;2023-02-01T15:57:47;1.55;;;0.70;;
59014;SDS011;44799;53.382;14.666;2023-02-01T16:02:58;1.92;;;0.70;;
59014;SDS011;44799;53.382;14.666;2023-02-01T16:08:02;0.95;;;0.60;;
59014;SDS011;44799;53.382;14.666;2023-02-01T16:10:42;1.08;;;0.60;;
59014;SDS011;44799;53.382;14.666;2023-02-01T16:13:10;1.27;;;0.68;;
59014;SDS011;44799;53.382;14.666;2023-02-01T16:15:37;1.30;;;0.60;;
59014;SDS011;44799;53.382;14.666;2023-02-01T16:18:04;1.52;;;0.80;;
59014;SDS011;44799;53.382;14.666;2023-02-01T16:20:31;1.00;;;0.70;;
59014;SDS011;44799;53.382;14.666;2023-02-01T16:22:58;1.67;;;0.98;;
59014;SDS011;44799;53.382;14.666;2023-02-01T16:25:24;2.03;;;0.82;;
59014;SDS011;44799;53.382;14.666;2023-02-01T16:27:49;1.08;;;0.70;;
59014;SDS011;44799;53.382;14.666;2023-02-01T16:30:15;1.33;;;0.88;;
59014;SDS011;44799;53.382;14.666;2023-02-01T16:32:48;1.35;;;0.80;;
59014;SDS011;44799;53.382;14.666;2023-02-01T16:35:16;0.40;;;0.40;;
59014;SDS011;44799;53.382;14.666;2023-02-01T16:38:13;1.60;;;0.70;;
59014;SDS011;44799;53.382;14.666;2023-02-01T16:40:44;2.08;;;0.73;;
59014;SDS011;44799;53.382;14.666;2023-02-01T16:43:20;0.88;;;0.50;;
59014;SDS011;44799;53.382;14.666;2023-02-01T16:45:48;1.27;;;0.57;;
59014;SDS011;44799;53.382;14.666;2023-02-01T16:50:55;1.02;;;0.60;;
59014;SDS011;44799;53.382;14.666;2023-02-01T16:53:25;1.30;;;0.73;;
59014;SDS011;44799;53.382;14.666;2023-02-01T16:55:52;1.65;;;0.95;;
59014;SDS011;44799;53.382;14.666;2023-02-01T16:58:19;1.83;;;0.60;;
59014;SDS011;44799;53.382;14.666;2023-02-01T17:00:47;2.10;;;0.77;;
59014;SDS011;44799;53.382;14.666;2023-02-01T17:03:13;1.50;;;0.70;;
59014;SDS011;44799;53.382;14.666;2023-02-01T17:05:42;1.02;;;0.75;;
59014;SDS011;44799;53.382;14.666;2023-02-01T17:08:29;1.40;;;0.82;;
59014;SDS011;44799;53.382;14.666;2023-02-01T17:10:58;1.58;;;0.80;;
59014;SDS011;44799;53.382;14.666;2023-02-01T17:13:23;1.08;;;0.70;;
59014;SDS011;44799;53.382;14.666;2023-02-01T17:15:53;1.55;;;0.80;;
59014;SDS011;44799;53.382;14.666;2023-02-01T17:18:55;1.98;;;0.73;;
59014;SDS011;44799;53.382;14.666;2023-02-01T17:21:48;0.98;;;0.68;;
59014;SDS011;44799;53.382;14.666;2023-02-01T17:24:17;1.48;;;0.70;;
59014;SDS011;44799;53.382;14.666;2023-02-01T17:26:45;1.20;;;0.63;;
59014;SDS011;44799;53.382;14.666;2023-02-01T17:29:11;2.13;;;0.70;;
59014;SDS011;44799;53.382;14.666;2023-02-01T17:31:38;1.08;;;0.93;;
59014;SDS011;44799;53.382;14.666;2023-02-01T17:34:08;2.05;;;0.90;;
59014;SDS011;44799;53.382;14.666;2023-02-01T17:36:34;2.15;;;0.90;;
59014;SDS011;44799;53.382;14.666;2023-02-01T17:39:01;1.95;;;0.60;;
59014;SDS011;44799;53.382;14.666;2023-02-01T17:41:27;2.88;;;0.93;;
59014;SDS011;44799;53.382;14.666;2023-02-01T17:43:53;1.67;;;0.55;;
59014;SDS011;44799;53.382;14.666;2023-02-01T17:46:19;1.13;;;0.70;;
59014;SDS011;44799;53.382;14.666;2023-02-01T17:48:51;2.03;;;0.70;;
59014;SDS011;44799;53.382;14.666;2023-02-01T17:51:19;0.85;;;0.60;;
59014;SDS011;44799;53.382;14.666;2023-02-01T17:53:46;1.02;;;0.60;;
59014;SDS011;44799;53.382;14.666;2023-02-01T17:56:13;1.23;;;0.65;;
59014;SDS011;44799;53.382;14.666;2023-02-01T17:58:41;1.05;;;0.65;;
59014;SDS011;44799;53.382;14.666;2023-02-01T18:01:14;0.80;;;0.60;;
59014;SDS011;44799;53.382;14.666;2023-02-01T18:03:44;1.90;;;0.77;;
59014;SDS011;44799;53.382;14.666;2023-02-01T18:06:13;1.17;;;1.05;;
59014;SDS011;44799;53.382;14.666;2023-02-01T18:08:41;3.47;;;0.67;;
59014;SDS011;44799;53.382;14.666;2023-02-01T18:11:09;2.83;;;0.52;;
59014;SDS011;44799;53.382;14.666;2023-02-01T18:13:37;0.88;;;0.73;;
59014;SDS011;44799;53.382;14.666;2023-02-01T18:16:03;1.42;;;0.65;;
59014;SDS011;44799;53.382;14.666;2023-02-01T18:18:30;0.75;;;0.60;;
59014;SDS011;44799;53.382;14.666;2023-02-01T18:20:58;0.93;;;0.73;;
59014;SDS011;44799;53.382;14.666;2023-02-01T18:23:24;1.45;;;0.70;;
59014;SDS011;44799;53.382;14.666;2023-02-01T18:25:50;2.03;;;0.60;;
59014;SDS011;44799;53.382;14.666;2023-02-01T18:28:17;1.13;;;0.75;;
59014;SDS011;44799;53.382;14.666;2023-02-01T18:30:46;0.90;;;0.65;;
59014;SDS011;44799;53.382;14.666;2023-02-01T18:33:14;2.67;;;0.90;;
59014;SDS011;44799;53.382;14.666;2023-02-01T18:35:41;1.40;;;0.60;;
59014;SDS011;44799;53.382;14.666;2023-02-01T18:38:07;1.20;;;0.82;;
59014;SDS011;44799;53.382;14.666;2023-02-01T18:40:35;0.73;;;0.73;;
59014;SDS011;44799;53.382;14.666;2023-02-01T18:43:04;1.77;;;0.70;;
59014;SDS011;44799;53.382;14.666;2023-02-01T18:47:56;1.58;;;0.68;;
59014;SDS011;44799;53.382;14.666;2023-02-01T18:50:23;2.20;;;0.70;;
59014;SDS011;44799;53.382;14.666;2023-02-01T18:52:53;2.30;;;1.13;;
59014;SDS011;44799;53.382;14.666;2023-02-01T18:55:23;1.38;;;0.80;;
59014;SDS011;44799;53.382;14.666;2023-02-01T18:57:49;2.33;;;0.50;;
59014;SDS011;44799;53.382;14.666;2023-02-01T19:00:16;2.17;;;0.60;;
59014;SDS011;44799;53.382;14.666;2023-02-01T19:02:43;0.88;;;0.70;;
59014;SDS011;44799;53.382;14.666;2023-02-01T19:05:10;1.27;;;0.77;;
59014;SDS011;44799;53.382;14.666;2023-02-01T19:07:36;0.60;;;0.47;;
59014;SDS011;44799;53.382;14.666;2023-02-01T19:10:03;1.80;;;0.70;;
59014;SDS011;44799;53.382;14.666;2023-02-01T19:12:31;3.03;;;1.63;;
59014;SDS011;44799;53.382;14.666;2023-02-01T19:15:02;4.70;;;2.17;;
59014;SDS011;44799;53.382;14.666;2023-02-01T19:17:29;4.35;;;2.33;;
59014;SDS011;44799;53.382;14.666;2023-02-01T19:19:55;5.45;;;2.13;;
59014;SDS011;44799;53.382;14.666;2023-02-01T19:22:23;6.57;;;2.88;;
59014;SDS011;44799;53.382;14.666;2023-02-01T19:24:49;5.25;;;2.40;;
59014;SDS011;44799;53.382;14.666;2023-02-01T19:27:15;6.38;;;2.30;;
59014;SDS011;44799;53.382;14.666;2023-02-01T19:29:41;3.15;;;2.13;;
59014;SDS011;44799;53.382;14.666;2023-02-01T19:32:10;3.53;;;1.80;;
59014;SDS011;44799;53.382;14.666;2023-02-01T19:34:36;3.88;;;2.33;;
59014;SDS011;44799;53.382;14.666;2023-02-01T19:37:03;3.55;;;1.80;;
59014;SDS011;44799;53.382;14.666;2023-02-01T19:39:30;3.83;;;2.13;;
59014;SDS011;44799;53.382;14.666;2023-02-01T19:41:56;4.43;;;2.13;;
59014;SDS011;44799;53.382;14.666;2023-02-01T19:44:23;2.97;;;1.60;;
59014;SDS011;44799;53.382;14.666;2023-02-01T19:46:49;4.50;;;1.70;;
59014;SDS011;44799;53.382;14.666;2023-02-01T19:49:15;2.97;;;1.70;;
59014;SDS011;44799;53.382;14.666;2023-02-01T19:51:41;2.75;;;1.70;;
59014;SDS011;44799;53.382;14.666;2023-02-01T19:54:09;2.65;;;1.58;;
59014;SDS011;44799;53.382;14.666;2023-02-01T19:56:35;2.97;;;1.38;;
59014;SDS011;44799;53.382;14.666;2023-02-01T19:59:02;1.75;;;1.33;;
59014;SDS011;44799;53.382;14.666;2023-02-01T20:01:29;3.30;;;1.60;;
59014;SDS011;44799;53.382;14.666;2023-02-01T20:03:56;2.03;;;1.17;;
59014;SDS011;44799;53.382;14.666;2023-02-01T20:06:29;4.13;;;1.65;;
59014;SDS011;44799;53.382;14.666;2023-02-01T20:08:56;4.05;;;1.40;;
59014;SDS011;44799;53.382;14.666;2023-02-01T20:11:23;2.55;;;1.20;;
59014;SDS011;44799;53.382;14.666;2023-02-01T20:13:53;2.47;;;1.50;;
59014;SDS011;44799;53.382;14.666;2023-02-01T20:16:20;2.58;;;1.27;;
59014;SDS011;44799;53.382;14.666;2023-02-01T20:18:46;2.00;;;1.40;;
59014;SDS011;44799;53.382;14.666;2023-02-01T20:21:12;2.85;;;1.30;;
59014;SDS011;44799;53.382;14.666;2023-02-01T20:23:38;1.75;;;1.10;;
59014;SDS011;44799;53.382;14.666;2023-02-01T20:26:05;2.60;;;1.65;;
59014;SDS011;44799;53.382;14.666;2023-02-01T20:28:32;2.42;;;0.90;;
59014;SDS011;44799;53.382;14.666;2023-02-01T20:30:59;2.35;;;0.90;;
59014;SDS011;44799;53.382;14.666;2023-02-01T20:33:25;2.72;;;0.90;;
59014;SDS011;44799;53.382;14.666;2023-02-01T20:35:53;2.38;;;1.00;;
59014;SDS011;44799;53.382;14.666;2023-02-01T20:38:18;2.58;;;1.15;;
59014;SDS011;44799;53.382;14.666;2023-02-01T20:40:45;2.75;;;1.35;;
59014;SDS011;44799;53.382;14.666;2023-02-01T20:43:11;3.22;;;1.45;;
59014;SDS011;44799;53.382;14.666;2023-02-01T20:45:40;2.03;;;1.00;;
59014;SDS011;44799;53.382;14.666;2023-02-01T20:48:07;1.58;;;1.00;;
59014;SDS011;44799;53.382;14.666;2023-02-01T20:50:34;1.40;;;0.93;;
59014;SDS011;44799;53.382;14.666;2023-02-01T20:53:00;1.45;;;0.80;;
59014;SDS011;44799;53.382;14.666;2023-02-01T20:55:26;2.10;;;1.00;;
59014;SDS011;44799;53.382;14.666;2023-02-01T20:57:52;2.47;;;1.10;;
59014;SDS011;44799;53.382;14.666;2023-02-01T21:00:18;2.60;;;0.90;;
59014;SDS011;44799;53.382;14.666;2023-02-01T21:02:47;1.67;;;1.00;;
59014;SDS011;44799;53.382;14.666;2023-02-01T21:05:13;3.35;;;1.30;;
59014;SDS011;44799;53.382;14.666;2023-02-01T21:07:40;2.25;;;0.82;;
59014;SDS011;44799;53.382;14.666;2023-02-01T21:10:06;1.17;;;0.73;;
59014;SDS011;44799;53.382;14.666;2023-02-01T21:12:33;1.80;;;0.98;;
59014;SDS011;44799;53.382;14.666;2023-02-01T21:14:59;2.03;;;1.00;;
59014;SDS011;44799;53.382;14.666;2023-02-01T21:17:25;3.00;;;1.48;;
59014;SDS011;44799;53.382;14.666;2023-02-01T21:19:53;2.30;;;1.00;;
59014;SDS011;44799;53.382;14.666;2023-02-01T21:22:19;3.35;;;0.98;;
59014;SDS011;44799;53.382;14.666;2023-02-01T21:24:45;2.35;;;1.00;;
59014;SDS011;44799;53.382;14.666;2023-02-01T21:27:11;1.95;;;0.93;;
59014;SDS011;44799;53.382;14.666;2023-02-01T21:29:37;1.60;;;0.90;;
59014;SDS011;44799;53.382;14.666;2023-02-01T21:32:04;1.10;;;0.88;;
59014;SDS011;44799;53.382;14.666;2023-02-01T21:34:31;2.22;;;0.95;;
59014;SDS011;44799;53.382;14.666;2023-02-01T21:36:57;0.73;;;0.70;;
59014;SDS011;44799;53.382;14.666;2023-02-01T21:39:23;1.58;;;0.90;;
59014;SDS011;44799;53.382;14.666;2023-02-01T21:41:49;1.20;;;0.85;;
59014;SDS011;44799;53.382;14.666;2023-02-01T21:44:33;1.38;;;0.68;;
59014;SDS011;44799;53.382;14.666;2023-02-01T21:46:59;2.13;;;0.90;;
59014;SDS011;44799;53.382;14.666;2023-02-01T21:49:25;2.03;;;0.88;;
59014;SDS011;44799;53.382;14.666;2023-02-01T21:51:52;1.52;;;0.80;;
59014;SDS011;44799;53.382;14.666;2023-02-01T21:54:18;1.25;;;0.98;;
59014;SDS011;44799;53.382;14.666;2023-02-01T21:56:44;1.50;;;0.75;;
59014;SDS011;44799;53.382;14.666;2023-02-01T21:59:10;2.55;;;0.77;;
59014;SDS011;44799;53.382;14.666;2023-02-01T22:01:37;1.77;;;0.80;;
59014;SDS011;44799;53.382;14.666;2023-02-01T22:04:04;2.17;;;0.95;;
59014;SDS011;44799;53.382;14.666;2023-02-01T22:06:33;2.50;;;0.75;;
59014;SDS011;44799;53.382;14.666;2023-02-01T22:09:01;2.13;;;1.00;;
59014;SDS011;44799;53.382;14.666;2023-02-01T22:11:27;1.27;;;0.60;;
59014;SDS011;44799;53.382;14.666;2023-02-01T22:13:53;1.25;;;0.90;;
59014;SDS011;44799;53.382;14.666;2023-02-01T22:16:19;1.15;;;0.70;;
59014;SDS011;44799;53.382;14.666;2023-02-01T22:18:51;2.63;;;0.90;;
59014;SDS011;44799;53.382;14.666;2023-02-01T22:21:18;3.20;;;0.82;;
59014;SDS011;44799;53.382;14.666;2023-02-01T22:23:49;2.38;;;1.10;;
59014;SDS011;44799;53.382;14.666;2023-02-01T22:26:19;1.08;;;0.70;;
59014;SDS011;44799;53.382;14.666;2023-02-01T22:28:46;2.83;;;0.90;;
59014;SDS011;44799;53.382;14.666;2023-02-01T22:31:12;1.95;;;0.70;;
59014;SDS011;44799;53.382;14.666;2023-02-01T22:33:38;1.23;;;0.70;;
59014;SDS011;44799;53.382;14.666;2023-02-01T22:36:04;2.28;;;1.00;;
59014;SDS011;44799;53.382;14.666;2023-02-01T22:38:32;1.83;;;0.70;;
59014;SDS011;44799;53.382;14.666;2023-02-01T22:40:59;1.73;;;0.60;;
59014;SDS011;44799;53.382;14.666;2023-02-01T22:43:27;2.22;;;0.82;;
59014;SDS011;44799;53.382;14.666;2023-02-01T22:45:53;2.15;;;0.77;;
59014;SDS011;44799;53.382;14.666;2023-02-01T22:48:22;1.98;;;0.73;;
59014;SDS011;44799;53.382;14.666;2023-02-01T22:50:48;2.42;;;0.52;;
59014;SDS011;44799;53.382;14.666;2023-02-01T22:53:14;1.30;;;0.70;;
59014;SDS011;44799;53.382;14.666;2023-02-01T22:55:40;0.95;;;0.50;;
59014;SDS011;44799;53.382;14.666;2023-02-01T22:58:06;2.70;;;0.80;;
59014;SDS011;44799;53.382;14.666;2023-02-01T23:00:32;2.05;;;0.70;;
59014;SDS011;44799;53.382;14.666;2023-02-01T23:02:59;1.15;;;0.63;;
59014;SDS011;44799;53.382;14.666;2023-02-01T23:05:24;2.22;;;0.82;;
59014;SDS011;44799;53.382;14.666;2023-02-01T23:07:50;1.83;;;0.85;;
59014;SDS011;44799;53.382;14.666;2023-02-01T23:10:17;1.67;;;0.75;;
59014;SDS011;44799;53.382;14.666;2023-02-01T23:12:45;1.98;;;0.85;;
59014;SDS011;44799;53.382;14.666;2023-02-01T23:15:11;0.93;;;0.75;;
59014;SDS011;44799;53.382;14.666;2023-02-01T23:17:40;0.77;;;0.63;;
59014;SDS011;44799;53.382;14.666;2023-02-01T23:20:09;2.15;;;0.98;;
59014;SDS011;44799;53.382;14.666;2023-02-01T23:22:40;4.18;;;0.85;;
59014;SDS011;44799;53.382;14.666;2023-02-01T23:25:07;2.65;;;0.80;;
59014;SDS011;44799;53.382;14.666;2023-02-01T23:27:33;1.83;;;0.50;;
59014;SDS011;44799;53.382;14.666;2023-02-01T23:30:00;3.60;;;0.95;;
59014;SDS011;44799;53.382;14.666;2023-02-01T23:32:26;2.50;;;0.90;;
59014;SDS011;44799;53.382;14.666;2023-02-01T23:34:51;1.55;;;0.63;;
59014;SDS011;44799;53.382;14.666;2023-02-01T23:37:17;2.10;;;0.85;;
59014;SDS011;44799;53.382;14.666;2023-02-01T23:39:43;2.05;;;0.70;;
59014;SDS011;44799;53.382;14.666;2023-02-01T23:42:09;1.52;;;0.50;;
59014;SDS011;44799;53.382;14.666;2023-02-01T23:44:34;2.15;;;0.80;;
59014;SDS011;44799;53.382;14.666;2023-02-01T23:47:00;2.60;;;0.70;;
59014;SDS011;44799;53.382;14.666;2023-02-01T23:49:26;1.55;;;0.90;;
59014;SDS011;44799;53.382;14.666;2023-02-01T23:51:52;28.67;;;14.98;;
59014;SDS011;44799;53.382;14.666;2023-02-01T23:54:20;28.67;;;14.20;;
59014;SDS011;44799;53.382;14.666;2023-02-01T23:56:47;7.25;;;3.78;;
59014;SDS011;44799;53.382;14.666;2023-02-01T23:59:17;6.63;;;3.42;;
